WLF522 KDEN-KLAX
Flight info
| Callsign | WLF522 |
|---|---|
| Flight time | 2h 6m |
| Altitude | 32000 |
| Route | BAYLR6 TEHRU JASSE Q90 DNERO ANJLL4 |
| Aircraft | B738/M-SDE2E3FGHIRWXY/LB1 |
Departure
| Time | 2026-05-03 21:30 |
|---|---|
| Airport | Denver International Airport (KDEN) |
Arrival
| Time | 2026-05-03 23:36 |
|---|---|
| Airport | Los Angeles International Airport (KLAX) |
| Time | Latitude | Longitude | Altitude | Speed | Heading |
|---|---|---|---|---|---|
| 2026-05-03 20:53 | 39.86357 | -104.67090 | 5384 ft | 0 kts | 181° |
| 2026-05-03 21:11 | 39.86373 | -104.67089 | 5385 ft | 4 kts | 194° |
| 2026-05-03 21:12 | 39.86395 | -104.67085 | 5382 ft | 4 kts | 187° |
| 2026-05-03 21:12 | 39.86413 | -104.67074 | 5385 ft | 4 kts | 259° |
| 2026-05-03 21:12 | 39.86412 | -104.67040 | 5383 ft | 4 kts | 279° |
| 2026-05-03 21:12 | 39.86410 | -104.67019 | 5381 ft | 1 kts | 271° |
| 2026-05-03 21:18 | 39.86410 | -104.67022 | 5381 ft | 1 kts | 270° |
| 2026-05-03 21:18 | 39.86411 | -104.67050 | 5384 ft | 5 kts | 275° |
| 2026-05-03 21:18 | 39.86418 | -104.67076 | 5385 ft | 0 kts | 306° |
| 2026-05-03 21:18 | 39.86420 | -104.67078 | 5385 ft | 1 kts | 310° |
| 2026-05-03 21:19 | 39.86431 | -104.67091 | 5384 ft | 0 kts | 324° |
| 2026-05-03 21:19 | 39.86433 | -104.67093 | 5384 ft | 2 kts | 324° |
| 2026-05-03 21:20 | 39.86431 | -104.67120 | 5383 ft | 5 kts | 253° |
| 2026-05-03 21:20 | 39.86416 | -104.67194 | 5385 ft | 11 kts | 260° |
| 2026-05-03 21:20 | 39.86412 | -104.67307 | 5385 ft | 14 kts | 268° |
| 2026-05-03 21:20 | 39.86414 | -104.67442 | 5385 ft | 15 kts | 271° |
| 2026-05-03 21:21 | 39.86415 | -104.67595 | 5385 ft | 18 kts | 271° |
| 2026-05-03 21:21 | 39.86416 | -104.67762 | 5385 ft | 19 kts | 270° |
| 2026-05-03 21:21 | 39.86418 | -104.67886 | 5385 ft | 13 kts | 272° |
| 2026-05-03 21:21 | 39.86465 | -104.67995 | 5385 ft | 16 kts | 304° |
| 2026-05-03 21:22 | 39.86470 | -104.68140 | 5385 ft | 17 kts | 249° |
| 2026-05-03 21:22 | 39.86423 | -104.68281 | 5370 ft | 6 kts | 272° |
| 2026-05-03 21:22 | 39.86423 | -104.68295 | 5369 ft | 0 kts | 274° |
| 2026-05-03 21:23 | 39.86424 | -104.68324 | 5367 ft | 10 kts | 270° |
| 2026-05-03 21:23 | 39.86368 | -104.68393 | 5366 ft | 15 kts | 180° |
| 2026-05-03 21:24 | 39.86252 | -104.68389 | 5364 ft | 18 kts | 179° |
| 2026-05-03 21:24 | 39.86122 | -104.68394 | 5365 ft | 20 kts | 182° |
| 2026-05-03 21:24 | 39.85974 | -104.68399 | 5365 ft | 22 kts | 178° |
| 2026-05-03 21:24 | 39.85907 | -104.68397 | 5366 ft | 7 kts | 179° |
| 2026-05-03 21:25 | 39.85850 | -104.68396 | 5366 ft | 10 kts | 180° |
| 2026-05-03 21:25 | 39.85775 | -104.68398 | 5369 ft | 12 kts | 181° |
| 2026-05-03 21:25 | 39.85682 | -104.68401 | 5370 ft | 14 kts | 181° |
| 2026-05-03 21:25 | 39.85576 | -104.68402 | 5371 ft | 16 kts | 180° |
| 2026-05-03 21:26 | 39.85455 | -104.68403 | 5372 ft | 19 kts | 181° |
| 2026-05-03 21:26 | 39.85316 | -104.68405 | 5371 ft | 21 kts | 180° |
| 2026-05-03 21:26 | 39.85207 | -104.68493 | 5371 ft | 24 kts | 268° |
| 2026-05-03 21:26 | 39.85203 | -104.68741 | 5362 ft | 30 kts | 269° |
| 2026-05-03 21:27 | 39.85197 | -104.69024 | 5351 ft | 33 kts | 269° |
| 2026-05-03 21:27 | 39.85201 | -104.69335 | 5342 ft | 32 kts | 271° |
| 2026-05-03 21:27 | 39.85202 | -104.69493 | 5338 ft | 0 kts | 270° |
| 2026-05-03 21:27 | 39.85202 | -104.69494 | 5338 ft | 1 kts | 270° |
| 2026-05-03 21:28 | 39.85201 | -104.69536 | 5334 ft | 8 kts | 268° |
| 2026-05-03 21:28 | 39.85206 | -104.69627 | 5334 ft | 12 kts | 281° |
| 2026-05-03 21:28 | 39.85261 | -104.69662 | 5335 ft | 0 kts | 2° |
| 2026-05-03 21:28 | 39.85265 | -104.69662 | 5335 ft | 3 kts | 2° |
| 2026-05-03 21:29 | 39.85424 | -104.69658 | 5337 ft | 55 kts | 0° |
| 2026-05-03 21:29 | 39.86034 | -104.69651 | 5338 ft | 120 kts | 1° |
| 2026-05-03 21:29 | 39.87070 | -104.69640 | 5340 ft | 175 kts | 359° |
| 2026-05-03 21:29 | 39.88430 | -104.69615 | 5537 ft | 207 kts | 0° |
| 2026-05-03 21:30 | 39.89847 | -104.69567 | 6510 ft | 199 kts | 353° |
| 2026-05-03 21:30 | 39.91142 | -104.70062 | 7223 ft | 195 kts | 323° |
| 2026-05-03 21:30 | 39.91956 | -104.71409 | 7768 ft | 192 kts | 287° |
| 2026-05-03 21:30 | 39.91981 | -104.73160 | 8154 ft | 202 kts | 253° |
| 2026-05-03 21:31 | 39.91196 | -104.74761 | 8413 ft | 222 kts | 226° |
| 2026-05-03 21:31 | 39.89939 | -104.76048 | 8703 ft | 235 kts | 218° |
| 2026-05-03 21:31 | 39.88611 | -104.77275 | 9218 ft | 237 kts | 221° |
| 2026-05-03 21:31 | 39.87364 | -104.78659 | 9833 ft | 229 kts | 226° |
| 2026-05-03 21:32 | 39.86151 | -104.80103 | 9927 ft | 252 kts | 226° |
| 2026-05-03 21:32 | 39.84822 | -104.81696 | 10084 ft | 270 kts | 225° |
| 2026-05-03 21:32 | 39.83355 | -104.83404 | 10009 ft | 288 kts | 225° |
| 2026-05-03 21:32 | 39.81875 | -104.85168 | 9975 ft | 289 kts | 225° |
| 2026-05-03 21:33 | 39.80404 | -104.86937 | 9972 ft | 287 kts | 225° |
| 2026-05-03 21:33 | 39.78935 | -104.88706 | 9968 ft | 286 kts | 226° |
| 2026-05-03 21:33 | 39.77623 | -104.90619 | 9942 ft | 282 kts | 244° |
| 2026-05-03 21:33 | 39.76930 | -104.92964 | 9963 ft | 278 kts | 256° |
| 2026-05-03 21:34 | 39.76407 | -104.95402 | 9965 ft | 281 kts | 257° |
| 2026-05-03 21:34 | 39.75889 | -104.97852 | 9941 ft | 282 kts | 257° |
| 2026-05-03 21:34 | 39.75359 | -105.00301 | 9979 ft | 280 kts | 256° |
| 2026-05-03 21:34 | 39.74821 | -105.02727 | 10387 ft | 278 kts | 255° |
| 2026-05-03 21:35 | 39.74128 | -105.05108 | 11017 ft | 284 kts | 250° |
| 2026-05-03 21:35 | 39.73352 | -105.07442 | 11654 ft | 288 kts | 249° |
| 2026-05-03 21:35 | 39.72541 | -105.09843 | 12262 ft | 292 kts | 248° |
| 2026-05-03 21:35 | 39.71727 | -105.12267 | 12992 ft | 293 kts | 249° |
| 2026-05-03 21:36 | 39.70914 | -105.14709 | 13718 ft | 294 kts | 249° |
| 2026-05-03 21:36 | 39.70102 | -105.17161 | 14329 ft | 297 kts | 249° |
| 2026-05-03 21:36 | 39.69283 | -105.19653 | 14866 ft | 303 kts | 248° |
| 2026-05-03 21:36 | 39.68461 | -105.22158 | 15521 ft | 302 kts | 249° |
| 2026-05-03 21:37 | 39.67630 | -105.24685 | 16097 ft | 305 kts | 248° |
| 2026-05-03 21:37 | 39.66789 | -105.27238 | 16576 ft | 313 kts | 248° |
| 2026-05-03 21:37 | 39.65907 | -105.29919 | 16712 ft | 331 kts | 248° |
| 2026-05-03 21:37 | 39.64980 | -105.32733 | 16851 ft | 348 kts | 248° |
| 2026-05-03 21:38 | 39.64005 | -105.35687 | 16998 ft | 364 kts | 248° |
| 2026-05-03 21:38 | 39.63001 | -105.38727 | 17187 ft | 378 kts | 248° |
| 2026-05-03 21:38 | 39.61946 | -105.41925 | 17325 ft | 392 kts | 247° |
| 2026-05-03 21:38 | 39.60860 | -105.45217 | 17542 ft | 402 kts | 248° |
| 2026-05-03 21:39 | 39.59752 | -105.48567 | 18094 ft | 403 kts | 247° |
| 2026-05-03 21:39 | 39.58639 | -105.51922 | 18512 ft | 407 kts | 247° |
| 2026-05-03 21:39 | 39.57511 | -105.55307 | 18942 ft | 409 kts | 247° |
| 2026-05-03 21:39 | 39.56384 | -105.58685 | 19475 ft | 409 kts | 247° |
| 2026-05-03 21:40 | 39.55253 | -105.62082 | 19826 ft | 413 kts | 248° |
| 2026-05-03 21:40 | 39.54203 | -105.65561 | 20307 ft | 414 kts | 251° |
| 2026-05-03 21:40 | 39.53234 | -105.69068 | 20777 ft | 415 kts | 252° |
| 2026-05-03 21:40 | 39.52287 | -105.72600 | 21316 ft | 413 kts | 252° |
| 2026-05-03 21:41 | 39.51339 | -105.76124 | 21779 ft | 415 kts | 252° |
| 2026-05-03 21:41 | 39.50375 | -105.79674 | 22085 ft | 419 kts | 252° |
| 2026-05-03 21:41 | 39.49398 | -105.83231 | 22492 ft | 421 kts | 251° |
| 2026-05-03 21:41 | 39.48408 | -105.86809 | 22827 ft | 423 kts | 251° |
| 2026-05-03 21:42 | 39.47407 | -105.90404 | 23194 ft | 426 kts | 251° |
| 2026-05-03 21:42 | 39.46409 | -105.93983 | 23455 ft | 430 kts | 251° |
| 2026-05-03 21:42 | 39.45388 | -105.97636 | 23708 ft | 433 kts | 251° |
| 2026-05-03 21:42 | 39.44343 | -106.01366 | 23958 ft | 436 kts | 251° |
| 2026-05-03 21:43 | 39.43318 | -106.05020 | 24215 ft | 439 kts | 251° |
| 2026-05-03 21:43 | 39.42276 | -106.08734 | 24544 ft | 439 kts | 251° |
| 2026-05-03 21:43 | 39.41234 | -106.12446 | 24795 ft | 441 kts | 251° |
| 2026-05-03 21:43 | 39.40180 | -106.16190 | 25071 ft | 443 kts | 251° |
| 2026-05-03 21:44 | 39.39125 | -106.19934 | 25357 ft | 444 kts | 251° |
| 2026-05-03 21:44 | 39.38066 | -106.23689 | 25655 ft | 445 kts | 251° |
| 2026-05-03 21:44 | 39.37004 | -106.27455 | 26170 ft | 446 kts | 251° |
| 2026-05-03 21:44 | 39.36299 | -106.29950 | 26362 ft | 447 kts | 251° |
| 2026-05-03 21:45 | 39.34872 | -106.34998 | 26817 ft | 446 kts | 251° |
| 2026-05-03 21:45 | 39.34165 | -106.37493 | 27047 ft | 446 kts | 251° |
| 2026-05-03 21:45 | 39.33100 | -106.41248 | 27419 ft | 444 kts | 251° |
| 2026-05-03 21:45 | 39.32041 | -106.44977 | 27835 ft | 442 kts | 251° |
| 2026-05-03 21:46 | 39.30986 | -106.48691 | 28225 ft | 440 kts | 251° |
| 2026-05-03 21:46 | 39.29930 | -106.52404 | 28584 ft | 439 kts | 251° |
| 2026-05-03 21:46 | 39.28877 | -106.56095 | 28944 ft | 437 kts | 251° |
| 2026-05-03 21:46 | 39.27827 | -106.59776 | 29260 ft | 436 kts | 251° |
| 2026-05-03 21:47 | 39.26779 | -106.63441 | 29639 ft | 434 kts | 251° |
| 2026-05-03 21:47 | 39.25737 | -106.67084 | 30069 ft | 432 kts | 251° |
| 2026-05-03 21:47 | 39.24696 | -106.70710 | 30420 ft | 431 kts | 250° |
| 2026-05-03 21:47 | 39.23291 | -106.74128 | 30701 ft | 435 kts | 235° |
| 2026-05-03 21:48 | 39.21461 | -106.77170 | 31034 ft | 433 kts | 235° |
| 2026-05-03 21:48 | 39.19632 | -106.80249 | 31368 ft | 431 kts | 236° |
| 2026-05-03 21:48 | 39.17827 | -106.83327 | 31757 ft | 428 kts | 236° |
| 2026-05-03 21:48 | 39.16048 | -106.86383 | 32119 ft | 426 kts | 236° |
| 2026-05-03 21:49 | 39.14270 | -106.89451 | 31932 ft | 426 kts | 236° |
| 2026-05-03 21:49 | 39.12498 | -106.92504 | 31919 ft | 425 kts | 236° |
| 2026-05-03 21:49 | 39.08965 | -106.98600 | 31939 ft | 425 kts | 236° |
| 2026-05-03 21:50 | 39.05416 | -107.04718 | 31940 ft | 427 kts | 236° |
| 2026-05-03 21:50 | 39.01870 | -107.10820 | 31953 ft | 429 kts | 236° |
| 2026-05-03 21:51 | 38.98293 | -107.16952 | 31957 ft | 429 kts | 236° |
| 2026-05-03 21:51 | 38.94707 | -107.23092 | 31929 ft | 429 kts | 236° |
| 2026-05-03 21:52 | 38.91121 | -107.29217 | 31930 ft | 428 kts | 236° |
| 2026-05-03 21:52 | 38.87549 | -107.35306 | 31925 ft | 426 kts | 236° |
| 2026-05-03 21:53 | 38.83999 | -107.41346 | 31937 ft | 423 kts | 236° |
| 2026-05-03 21:53 | 38.80476 | -107.47332 | 31923 ft | 422 kts | 236° |
| 2026-05-03 21:54 | 38.76943 | -107.53321 | 31916 ft | 420 kts | 236° |
| 2026-05-03 21:54 | 38.73416 | -107.59287 | 31919 ft | 420 kts | 236° |
| 2026-05-03 21:55 | 38.69890 | -107.65248 | 31915 ft | 419 kts | 236° |
| 2026-05-03 21:55 | 38.66363 | -107.71197 | 31905 ft | 420 kts | 236° |
| 2026-05-03 21:56 | 38.62830 | -107.77144 | 31902 ft | 419 kts | 236° |
| 2026-05-03 21:56 | 38.59313 | -107.83056 | 32063 ft | 421 kts | 236° |
| 2026-05-03 21:57 | 38.55762 | -107.89009 | 32077 ft | 421 kts | 236° |
| 2026-05-03 21:57 | 38.52198 | -107.94973 | 32076 ft | 422 kts | 236° |
| 2026-05-03 21:58 | 38.48627 | -108.00940 | 32071 ft | 422 kts | 236° |
| 2026-05-03 21:58 | 38.45060 | -108.06891 | 32053 ft | 422 kts | 236° |
| 2026-05-03 21:59 | 38.41482 | -108.12846 | 32028 ft | 422 kts | 236° |
| 2026-05-03 21:59 | 38.37904 | -108.18790 | 32005 ft | 422 kts | 236° |
| 2026-05-03 22:00 | 38.34347 | -108.24686 | 31971 ft | 421 kts | 236° |
| 2026-05-03 22:00 | 38.30772 | -108.30609 | 31965 ft | 421 kts | 236° |
| 2026-05-03 22:01 | 38.27197 | -108.36518 | 31981 ft | 420 kts | 236° |
| 2026-05-03 22:01 | 38.23630 | -108.42401 | 31988 ft | 419 kts | 236° |
| 2026-05-03 22:02 | 38.20087 | -108.48235 | 31983 ft | 418 kts | 236° |
| 2026-05-03 22:02 | 38.16532 | -108.54079 | 31976 ft | 417 kts | 236° |
| 2026-05-03 22:03 | 38.12987 | -108.59895 | 31981 ft | 415 kts | 236° |
| 2026-05-03 22:03 | 38.09449 | -108.65689 | 31972 ft | 414 kts | 236° |
| 2026-05-03 22:04 | 38.05916 | -108.71466 | 31957 ft | 414 kts | 236° |
| 2026-05-03 22:04 | 38.02410 | -108.77189 | 31984 ft | 413 kts | 236° |
| 2026-05-03 22:05 | 37.98886 | -108.82930 | 31981 ft | 411 kts | 236° |
| 2026-05-03 22:05 | 37.95370 | -108.88648 | 31976 ft | 410 kts | 236° |
| 2026-05-03 22:06 | 37.91871 | -108.94330 | 31970 ft | 409 kts | 236° |
| 2026-05-03 22:06 | 37.88368 | -109.00008 | 31973 ft | 408 kts | 236° |
| 2026-05-03 22:07 | 37.84895 | -109.05627 | 31974 ft | 408 kts | 236° |
| 2026-05-03 22:07 | 37.81401 | -109.11271 | 31974 ft | 407 kts | 236° |
| 2026-05-03 22:08 | 37.77905 | -109.16909 | 31979 ft | 407 kts | 236° |
| 2026-05-03 22:08 | 37.74400 | -109.22550 | 32001 ft | 407 kts | 236° |
| 2026-05-03 22:09 | 37.70902 | -109.28176 | 32015 ft | 407 kts | 236° |
| 2026-05-03 22:10 | 37.65651 | -109.36592 | 32049 ft | 406 kts | 236° |
| 2026-05-03 22:10 | 37.62183 | -109.42140 | 32064 ft | 405 kts | 236° |
| 2026-05-03 22:11 | 37.58699 | -109.47704 | 32072 ft | 403 kts | 236° |
| 2026-05-03 22:11 | 37.55227 | -109.53242 | 32067 ft | 402 kts | 235° |
| 2026-05-03 22:12 | 37.51757 | -109.58752 | 32051 ft | 401 kts | 235° |
| 2026-05-03 22:12 | 37.48299 | -109.64251 | 32023 ft | 399 kts | 235° |
| 2026-05-03 22:13 | 37.44860 | -109.69720 | 31911 ft | 398 kts | 236° |
| 2026-05-03 22:13 | 37.41427 | -109.75167 | 31890 ft | 396 kts | 236° |
| 2026-05-03 22:14 | 37.37999 | -109.80586 | 31886 ft | 396 kts | 235° |
| 2026-05-03 22:14 | 37.34571 | -109.85992 | 31898 ft | 395 kts | 235° |
| 2026-05-03 22:15 | 37.31161 | -109.91378 | 31890 ft | 396 kts | 235° |
| 2026-05-03 22:15 | 37.27723 | -109.96787 | 31889 ft | 397 kts | 235° |
| 2026-05-03 22:16 | 37.24266 | -110.02215 | 31883 ft | 399 kts | 235° |
| 2026-05-03 22:16 | 37.20790 | -110.07674 | 31872 ft | 401 kts | 235° |
| 2026-05-03 22:17 | 37.17305 | -110.13134 | 31874 ft | 401 kts | 235° |
| 2026-05-03 22:17 | 37.13837 | -110.18549 | 31873 ft | 400 kts | 234° |
| 2026-05-03 22:18 | 37.10355 | -110.23982 | 31861 ft | 399 kts | 234° |
| 2026-05-03 22:18 | 37.06887 | -110.29378 | 31867 ft | 397 kts | 234° |
| 2026-05-03 22:19 | 37.03432 | -110.34757 | 31877 ft | 395 kts | 234° |
| 2026-05-03 22:19 | 36.99991 | -110.40102 | 31884 ft | 393 kts | 234° |
| 2026-05-03 22:20 | 36.96553 | -110.45430 | 31880 ft | 394 kts | 234° |
| 2026-05-03 22:20 | 36.93111 | -110.50769 | 31883 ft | 394 kts | 234° |
| 2026-05-03 22:21 | 36.89665 | -110.56098 | 31879 ft | 393 kts | 234° |
| 2026-05-03 22:21 | 36.86244 | -110.61389 | 31881 ft | 394 kts | 234° |
| 2026-05-03 22:22 | 36.82794 | -110.66702 | 31888 ft | 394 kts | 234° |
| 2026-05-03 22:22 | 36.79334 | -110.72025 | 31865 ft | 395 kts | 234° |
| 2026-05-03 22:23 | 36.75871 | -110.77344 | 31881 ft | 395 kts | 234° |
| 2026-05-03 22:23 | 36.72399 | -110.82668 | 31865 ft | 396 kts | 234° |
| 2026-05-03 22:24 | 36.68925 | -110.87988 | 31869 ft | 396 kts | 234° |
| 2026-05-03 22:24 | 36.65442 | -110.93313 | 31873 ft | 396 kts | 234° |
| 2026-05-03 22:25 | 36.61981 | -110.98597 | 31870 ft | 397 kts | 234° |
| 2026-05-03 22:25 | 36.58485 | -111.03926 | 31870 ft | 397 kts | 234° |
| 2026-05-03 22:26 | 36.54991 | -111.09243 | 31870 ft | 397 kts | 234° |
| 2026-05-03 22:26 | 36.51487 | -111.14567 | 31875 ft | 397 kts | 234° |
| 2026-05-03 22:27 | 36.47997 | -111.19861 | 31863 ft | 395 kts | 234° |
| 2026-05-03 22:27 | 36.44517 | -111.25131 | 31861 ft | 394 kts | 234° |
| 2026-05-03 22:28 | 36.41067 | -111.30348 | 31864 ft | 392 kts | 234° |
| 2026-05-03 22:28 | 36.37608 | -111.35570 | 31860 ft | 391 kts | 234° |
| 2026-05-03 22:29 | 36.34162 | -111.40766 | 31876 ft | 390 kts | 234° |
| 2026-05-03 22:29 | 36.30715 | -111.45956 | 31858 ft | 389 kts | 234° |
| 2026-05-03 22:30 | 36.27272 | -111.51132 | 31878 ft | 389 kts | 234° |
| 2026-05-03 22:30 | 36.23830 | -111.56296 | 31886 ft | 389 kts | 234° |
| 2026-05-03 22:31 | 36.20376 | -111.61474 | 31890 ft | 390 kts | 234° |
| 2026-05-03 22:31 | 36.16910 | -111.66645 | 31860 ft | 390 kts | 234° |
| 2026-05-03 22:32 | 36.13456 | -111.71825 | 31870 ft | 390 kts | 235° |
| 2026-05-03 22:32 | 36.10010 | -111.76963 | 31904 ft | 390 kts | 235° |
| 2026-05-03 22:33 | 36.06881 | -111.82385 | 31962 ft | 385 kts | 244° |
| 2026-05-03 22:33 | 36.04786 | -111.88450 | 31994 ft | 384 kts | 250° |
| 2026-05-03 22:34 | 36.02836 | -111.94604 | 32047 ft | 384 kts | 249° |
| 2026-05-03 22:34 | 36.00874 | -112.00755 | 32095 ft | 384 kts | 250° |
| 2026-05-03 22:35 | 35.98941 | -112.06835 | 32134 ft | 382 kts | 250° |
| 2026-05-03 22:35 | 35.96979 | -112.12940 | 32127 ft | 383 kts | 250° |
| 2026-05-03 22:36 | 35.95013 | -112.19041 | 32123 ft | 382 kts | 250° |
| 2026-05-03 22:36 | 35.93051 | -112.25122 | 32119 ft | 381 kts | 250° |
| 2026-05-03 22:37 | 35.91092 | -112.31184 | 32077 ft | 380 kts | 250° |
| 2026-05-03 22:37 | 35.89132 | -112.37237 | 32025 ft | 379 kts | 250° |
| 2026-05-03 22:38 | 35.87506 | -112.42249 | 31986 ft | 379 kts | 250° |
| 2026-05-03 22:38 | 35.85228 | -112.49254 | 31904 ft | 378 kts | 250° |
| 2026-05-03 22:39 | 35.83270 | -112.55265 | 31865 ft | 378 kts | 250° |
| 2026-05-03 22:39 | 35.81310 | -112.61269 | 31857 ft | 377 kts | 250° |
| 2026-05-03 22:40 | 35.79665 | -112.66299 | 31857 ft | 377 kts | 250° |
| 2026-05-03 22:40 | 35.77715 | -112.72255 | 31848 ft | 377 kts | 250° |
| 2026-05-03 22:41 | 35.75746 | -112.78252 | 31852 ft | 378 kts | 250° |
| 2026-05-03 22:41 | 35.73773 | -112.84248 | 31856 ft | 377 kts | 250° |
| 2026-05-03 22:42 | 35.71796 | -112.90247 | 31838 ft | 378 kts | 250° |
| 2026-05-03 22:42 | 35.69819 | -112.96233 | 31840 ft | 378 kts | 250° |
| 2026-05-03 22:43 | 35.67836 | -113.02225 | 31836 ft | 378 kts | 250° |
| 2026-05-03 22:43 | 35.65852 | -113.08208 | 31806 ft | 378 kts | 250° |
| 2026-05-03 22:44 | 35.63879 | -113.14151 | 31820 ft | 378 kts | 250° |
| 2026-05-03 22:44 | 35.61886 | -113.20141 | 31813 ft | 379 kts | 250° |
| 2026-05-03 22:45 | 35.59883 | -113.26138 | 31798 ft | 379 kts | 250° |
| 2026-05-03 22:45 | 35.57875 | -113.32128 | 31796 ft | 379 kts | 250° |
| 2026-05-03 22:46 | 35.55863 | -113.38118 | 31788 ft | 379 kts | 250° |
| 2026-05-03 22:46 | 35.53859 | -113.44077 | 31770 ft | 380 kts | 249° |
| 2026-05-03 22:47 | 35.51840 | -113.50072 | 31769 ft | 380 kts | 249° |
| 2026-05-03 22:47 | 35.49814 | -113.56072 | 31770 ft | 380 kts | 249° |
| 2026-05-03 22:48 | 35.47788 | -113.62065 | 31783 ft | 380 kts | 249° |
| 2026-05-03 22:48 | 35.45756 | -113.68060 | 31802 ft | 380 kts | 249° |
| 2026-05-03 22:49 | 35.43718 | -113.74063 | 31826 ft | 381 kts | 249° |
| 2026-05-03 22:49 | 35.41690 | -113.80026 | 31838 ft | 381 kts | 249° |
| 2026-05-03 22:50 | 35.39647 | -113.86018 | 31873 ft | 381 kts | 249° |
| 2026-05-03 22:50 | 35.37595 | -113.92025 | 31886 ft | 381 kts | 249° |
| 2026-05-03 22:51 | 35.35549 | -113.98006 | 31900 ft | 380 kts | 249° |
| 2026-05-03 22:51 | 35.33502 | -114.03977 | 31895 ft | 380 kts | 249° |
| 2026-05-03 22:52 | 35.31457 | -114.09930 | 31884 ft | 379 kts | 249° |
| 2026-05-03 22:52 | 35.29402 | -114.15909 | 31848 ft | 381 kts | 249° |
| 2026-05-03 22:53 | 35.27349 | -114.21855 | 31818 ft | 381 kts | 249° |
| 2026-05-03 22:53 | 35.25283 | -114.27832 | 31785 ft | 381 kts | 249° |
| 2026-05-03 22:54 | 35.23214 | -114.33808 | 31752 ft | 381 kts | 249° |
| 2026-05-03 22:54 | 35.21143 | -114.39780 | 31732 ft | 381 kts | 249° |
| 2026-05-03 22:55 | 35.19073 | -114.45739 | 31733 ft | 381 kts | 249° |
| 2026-05-03 22:55 | 35.16996 | -114.51706 | 31728 ft | 382 kts | 249° |
| 2026-05-03 22:56 | 35.14914 | -114.57678 | 31737 ft | 382 kts | 248° |
| 2026-05-03 22:56 | 35.12831 | -114.63642 | 31742 ft | 381 kts | 248° |
| 2026-05-03 22:57 | 35.10767 | -114.69597 | 31741 ft | 380 kts | 249° |
| 2026-05-03 22:57 | 35.08725 | -114.75486 | 31745 ft | 379 kts | 249° |
| 2026-05-03 22:58 | 35.06668 | -114.81405 | 31750 ft | 379 kts | 249° |
| 2026-05-03 22:58 | 35.04604 | -114.87334 | 31735 ft | 380 kts | 249° |
| 2026-05-03 22:59 | 35.02418 | -114.93229 | 31739 ft | 383 kts | 245° |
| 2026-05-03 22:59 | 34.99901 | -114.98995 | 31735 ft | 386 kts | 244° |
| 2026-05-03 23:00 | 34.97352 | -115.04759 | 31758 ft | 387 kts | 245° |
| 2026-05-03 23:00 | 34.94816 | -115.10557 | 31764 ft | 388 kts | 245° |
| 2026-05-03 23:01 | 34.92285 | -115.16370 | 31773 ft | 389 kts | 245° |
| 2026-05-03 23:01 | 34.89748 | -115.22201 | 31772 ft | 389 kts | 245° |
| 2026-05-03 23:02 | 34.87227 | -115.27982 | 31776 ft | 389 kts | 245° |
| 2026-05-03 23:02 | 34.84691 | -115.33789 | 31768 ft | 388 kts | 245° |
| 2026-05-03 23:03 | 34.82156 | -115.39589 | 31759 ft | 388 kts | 245° |
| 2026-05-03 23:03 | 34.79622 | -115.45371 | 31768 ft | 386 kts | 245° |
| 2026-05-03 23:04 | 34.77317 | -115.51260 | 31765 ft | 384 kts | 248° |
| 2026-05-03 23:04 | 34.75184 | -115.57202 | 31760 ft | 383 kts | 249° |
| 2026-05-03 23:05 | 34.73033 | -115.63134 | 31770 ft | 383 kts | 248° |
| 2026-05-03 23:05 | 34.70871 | -115.69013 | 31765 ft | 383 kts | 248° |
| 2026-05-03 23:06 | 34.68688 | -115.74921 | 31757 ft | 383 kts | 248° |
| 2026-05-03 23:06 | 34.66500 | -115.80830 | 31763 ft | 383 kts | 248° |
| 2026-05-03 23:07 | 34.64310 | -115.86735 | 31752 ft | 384 kts | 248° |
| 2026-05-03 23:07 | 34.62119 | -115.92647 | 31759 ft | 384 kts | 248° |
| 2026-05-03 23:08 | 34.59939 | -115.98564 | 31771 ft | 384 kts | 248° |
| 2026-05-03 23:08 | 34.57759 | -116.04474 | 31761 ft | 384 kts | 248° |
| 2026-05-03 23:09 | 34.55579 | -116.10373 | 31766 ft | 383 kts | 248° |
| 2026-05-03 23:09 | 34.53374 | -116.16258 | 31768 ft | 383 kts | 248° |
| 2026-05-03 23:10 | 34.51199 | -116.22145 | 31758 ft | 381 kts | 248° |
| 2026-05-03 23:10 | 34.49034 | -116.28002 | 31771 ft | 380 kts | 248° |
| 2026-05-03 23:11 | 34.46871 | -116.33820 | 31307 ft | 385 kts | 248° |
| 2026-05-03 23:11 | 34.45778 | -116.36749 | 30863 ft | 379 kts | 248° |
| 2026-05-03 23:11 | 34.44700 | -116.39638 | 30390 ft | 374 kts | 248° |
| 2026-05-03 23:11 | 34.43633 | -116.42495 | 29874 ft | 370 kts | 248° |
| 2026-05-03 23:12 | 34.42572 | -116.45331 | 29311 ft | 367 kts | 248° |
| 2026-05-03 23:12 | 34.41523 | -116.48131 | 28742 ft | 364 kts | 247° |
| 2026-05-03 23:12 | 34.40425 | -116.50894 | 28076 ft | 364 kts | 245° |
| 2026-05-03 23:12 | 34.39289 | -116.53621 | 27548 ft | 360 kts | 245° |
| 2026-05-03 23:13 | 34.38162 | -116.56310 | 27018 ft | 356 kts | 245° |
| 2026-05-03 23:13 | 34.37052 | -116.58972 | 26524 ft | 352 kts | 245° |
| 2026-05-03 23:13 | 34.35959 | -116.61613 | 26023 ft | 349 kts | 245° |
| 2026-05-03 23:13 | 34.34892 | -116.64195 | 25888 ft | 337 kts | 245° |
| 2026-05-03 23:14 | 34.33874 | -116.66657 | 25810 ft | 323 kts | 245° |
| 2026-05-03 23:14 | 34.32884 | -116.69075 | 25400 ft | 320 kts | 245° |
| 2026-05-03 23:14 | 34.31911 | -116.71489 | 25004 ft | 317 kts | 246° |
| 2026-05-03 23:14 | 34.30951 | -116.73884 | 24596 ft | 315 kts | 245° |
| 2026-05-03 23:15 | 34.29997 | -116.76259 | 24201 ft | 313 kts | 245° |
| 2026-05-03 23:15 | 34.29049 | -116.78622 | 23789 ft | 311 kts | 246° |
| 2026-05-03 23:15 | 34.28105 | -116.80974 | 23398 ft | 310 kts | 245° |
| 2026-05-03 23:15 | 34.27163 | -116.83316 | 22934 ft | 308 kts | 245° |
| 2026-05-03 23:16 | 34.26212 | -116.85665 | 22483 ft | 316 kts | 245° |
| 2026-05-03 23:16 | 34.25233 | -116.88100 | 22097 ft | 325 kts | 245° |
| 2026-05-03 23:16 | 34.24245 | -116.90551 | 21641 ft | 323 kts | 244° |
| 2026-05-03 23:16 | 34.23263 | -116.92981 | 21214 ft | 320 kts | 244° |
| 2026-05-03 23:17 | 34.22288 | -116.95389 | 20790 ft | 317 kts | 244° |
| 2026-05-03 23:17 | 34.21323 | -116.97774 | 20378 ft | 315 kts | 244° |
| 2026-05-03 23:17 | 34.20498 | -117.00189 | 19890 ft | 317 kts | 250° |
| 2026-05-03 23:17 | 34.19829 | -117.02737 | 19480 ft | 317 kts | 252° |
| 2026-05-03 23:18 | 34.19187 | -117.05285 | 19045 ft | 317 kts | 251° |
| 2026-05-03 23:18 | 34.18528 | -117.07818 | 18642 ft | 316 kts | 251° |
| 2026-05-03 23:18 | 34.17854 | -117.10338 | 18256 ft | 315 kts | 250° |
| 2026-05-03 23:18 | 34.17175 | -117.12856 | 17818 ft | 314 kts | 250° |
| 2026-05-03 23:19 | 34.16498 | -117.15359 | 17393 ft | 313 kts | 249° |
| 2026-05-03 23:19 | 34.15817 | -117.17849 | 16989 ft | 312 kts | 249° |
| 2026-05-03 23:19 | 34.15132 | -117.20335 | 16610 ft | 312 kts | 249° |
| 2026-05-03 23:19 | 34.14450 | -117.22811 | 16216 ft | 311 kts | 249° |
| 2026-05-03 23:20 | 34.13768 | -117.25284 | 15820 ft | 310 kts | 249° |
| 2026-05-03 23:20 | 34.13089 | -117.27749 | 15435 ft | 308 kts | 249° |
| 2026-05-03 23:20 | 34.12413 | -117.30203 | 15048 ft | 308 kts | 249° |
| 2026-05-03 23:20 | 34.11747 | -117.32618 | 14668 ft | 307 kts | 249° |
| 2026-05-03 23:21 | 34.11063 | -117.35094 | 14280 ft | 307 kts | 249° |
| 2026-05-03 23:21 | 34.10393 | -117.37534 | 13914 ft | 306 kts | 249° |
| 2026-05-03 23:21 | 34.09766 | -117.40001 | 13576 ft | 309 kts | 250° |
| 2026-05-03 23:21 | 34.09154 | -117.42477 | 13228 ft | 315 kts | 250° |
| 2026-05-03 23:22 | 34.07879 | -117.47606 | 12542 ft | 321 kts | 251° |
| 2026-05-03 23:22 | 34.07237 | -117.50171 | 12191 ft | 317 kts | 250° |
| 2026-05-03 23:22 | 34.06594 | -117.52707 | 11849 ft | 314 kts | 250° |
| 2026-05-03 23:23 | 34.05955 | -117.55204 | 11525 ft | 310 kts | 250° |
| 2026-05-03 23:23 | 34.05324 | -117.57670 | 11200 ft | 307 kts | 250° |
| 2026-05-03 23:23 | 34.04696 | -117.60120 | 10880 ft | 304 kts | 250° |
| 2026-05-03 23:23 | 34.04076 | -117.62543 | 10556 ft | 301 kts | 250° |
| 2026-05-03 23:24 | 34.03461 | -117.64943 | 10249 ft | 298 kts | 250° |
| 2026-05-03 23:24 | 34.02850 | -117.67325 | 9949 ft | 296 kts | 250° |
| 2026-05-03 23:24 | 34.02260 | -117.69643 | 9936 ft | 282 kts | 251° |
| 2026-05-03 23:24 | 34.01899 | -117.71926 | 9908 ft | 273 kts | 260° |
| 2026-05-03 23:25 | 34.01709 | -117.74171 | 9758 ft | 266 kts | 261° |
| 2026-05-03 23:25 | 34.01525 | -117.76383 | 9449 ft | 265 kts | 260° |
| 2026-05-03 23:25 | 34.01338 | -117.78574 | 9108 ft | 266 kts | 260° |
| 2026-05-03 23:25 | 34.01134 | -117.80793 | 8838 ft | 264 kts | 260° |
| 2026-05-03 23:26 | 34.00926 | -117.82972 | 8412 ft | 262 kts | 260° |
| 2026-05-03 23:26 | 34.00712 | -117.85171 | 7855 ft | 265 kts | 260° |
| 2026-05-03 23:26 | 34.00501 | -117.87342 | 7438 ft | 263 kts | 259° |
| 2026-05-03 23:26 | 34.00288 | -117.89521 | 7066 ft | 260 kts | 259° |
| 2026-05-03 23:27 | 34.00084 | -117.91616 | 6999 ft | 243 kts | 259° |
| 2026-05-03 23:27 | 33.99895 | -117.93569 | 6978 ft | 227 kts | 259° |
| 2026-05-03 23:27 | 33.99716 | -117.95415 | 6982 ft | 215 kts | 258° |
| 2026-05-03 23:27 | 33.99543 | -117.97174 | 7010 ft | 210 kts | 259° |
| 2026-05-03 23:28 | 33.99425 | -117.98358 | 7005 ft | 212 kts | 258° |
| 2026-05-03 23:28 | 33.99251 | -118.00095 | 6943 ft | 209 kts | 258° |
| 2026-05-03 23:28 | 33.99076 | -118.01831 | 6640 ft | 207 kts | 258° |
| 2026-05-03 23:28 | 33.98878 | -118.03564 | 6172 ft | 210 kts | 258° |
| 2026-05-03 23:29 | 33.98711 | -118.05305 | 5755 ft | 210 kts | 259° |
| 2026-05-03 23:29 | 33.98546 | -118.07053 | 5452 ft | 207 kts | 259° |
| 2026-05-03 23:29 | 33.98377 | -118.08783 | 5083 ft | 209 kts | 260° |
| 2026-05-03 23:29 | 33.98204 | -118.10530 | 4736 ft | 210 kts | 261° |
| 2026-05-03 23:30 | 33.98032 | -118.12270 | 4468 ft | 207 kts | 262° |
| 2026-05-03 23:30 | 33.97863 | -118.13977 | 4188 ft | 203 kts | 261° |
| 2026-05-03 23:30 | 33.97695 | -118.15654 | 3930 ft | 201 kts | 261° |
| 2026-05-03 23:30 | 33.97528 | -118.17318 | 3601 ft | 200 kts | 262° |
| 2026-05-03 23:31 | 33.97364 | -118.18960 | 3366 ft | 195 kts | 262° |
| 2026-05-03 23:31 | 33.97205 | -118.20552 | 3165 ft | 188 kts | 261° |
| 2026-05-03 23:31 | 33.97052 | -118.22075 | 2961 ft | 180 kts | 261° |
| 2026-05-03 23:31 | 33.96904 | -118.23536 | 2752 ft | 171 kts | 261° |
| 2026-05-03 23:32 | 33.96768 | -118.24897 | 2586 ft | 156 kts | 261° |
| 2026-05-03 23:32 | 33.96639 | -118.26185 | 2395 ft | 154 kts | 259° |
| 2026-05-03 23:32 | 33.96511 | -118.27439 | 2247 ft | 146 kts | 259° |
| 2026-05-03 23:32 | 33.96388 | -118.28647 | 2189 ft | 145 kts | 259° |
| 2026-05-03 23:33 | 33.96262 | -118.29839 | 2063 ft | 141 kts | 259° |
| 2026-05-03 23:33 | 33.96129 | -118.31005 | 1972 ft | 145 kts | 259° |
| 2026-05-03 23:33 | 33.95995 | -118.32201 | 1726 ft | 146 kts | 260° |
| 2026-05-03 23:33 | 33.95879 | -118.33436 | 1357 ft | 150 kts | 260° |
| 2026-05-03 23:34 | 33.95765 | -118.34628 | 1152 ft | 139 kts | 262° |
| 2026-05-03 23:34 | 33.95657 | -118.35795 | 832 ft | 138 kts | 261° |
| 2026-05-03 23:34 | 33.95535 | -118.36932 | 639 ft | 138 kts | 261° |
| 2026-05-03 23:34 | 33.95415 | -118.38058 | 472 ft | 135 kts | 261° |
| 2026-05-03 23:35 | 33.95286 | -118.39230 | 338 ft | 148 kts | 263° |
| 2026-05-03 23:35 | 33.95173 | -118.40437 | 167 ft | 140 kts | 263° |
| 2026-05-03 23:35 | 33.95071 | -118.41545 | 126 ft | 123 kts | 264° |
| 2026-05-03 23:35 | 33.94983 | -118.42439 | 125 ft | 78 kts | 262° |
| 2026-05-03 23:36 | 33.94934 | -118.42897 | 125 ft | 37 kts | 261° |
| 2026-05-03 23:36 | 33.94883 | -118.43097 | 122 ft | 19 kts | 208° |
| 2026-05-03 23:36 | 33.94811 | -118.43089 | 122 ft | 0 kts | 170° |
| 2026-05-03 23:40 | 33.94810 | -118.43089 | 125 ft | 1 kts | 170° |
| 2026-05-03 23:40 | 33.94761 | -118.43080 | 123 ft | 15 kts | 172° |
| 2026-05-03 23:40 | 33.94651 | -118.42993 | 125 ft | 24 kts | 128° |
| 2026-05-03 23:40 | 33.94628 | -118.42788 | 123 ft | 28 kts | 83° |
| 2026-05-03 23:41 | 33.94649 | -118.42571 | 124 ft | 17 kts | 83° |
| 2026-05-03 23:41 | 33.94665 | -118.42409 | 123 ft | 22 kts | 83° |
| 2026-05-03 23:41 | 33.94682 | -118.42245 | 125 ft | 20 kts | 84° |
| 2026-05-03 23:41 | 33.94702 | -118.42068 | 125 ft | 19 kts | 82° |
| 2026-05-03 23:42 | 33.94719 | -118.41891 | 123 ft | 24 kts | 83° |
| 2026-05-03 23:42 | 33.94741 | -118.41673 | 125 ft | 29 kts | 83° |
| 2026-05-03 23:42 | 33.94764 | -118.41458 | 123 ft | 27 kts | 79° |
| 2026-05-03 23:42 | 33.94798 | -118.41246 | 123 ft | 18 kts | 83° |
| 2026-05-03 23:43 | 33.94815 | -118.41076 | 125 ft | 23 kts | 83° |
| 2026-05-03 23:43 | 33.94829 | -118.40929 | 122 ft | 17 kts | 97° |
| 2026-05-03 23:43 | 33.94749 | -118.40906 | 123 ft | 10 kts | 209° |
| 2026-05-03 23:43 | 33.94690 | -118.40885 | 124 ft | 10 kts | 120° |
| 2026-05-03 23:44 | 33.94674 | -118.40852 | 122 ft | 1 kts | 118° |
| 2026-05-03 23:44 | 33.94671 | -118.40845 | 121 ft | 0 kts | 121° |